Latest Weather Observations for Mortlake

IDV60801

Issued at 10:02 pm EST Tuesday 3 May 2016 (issued every 30 minutes, with the page automatically refreshed every 10 minutes)

About weather observations | Map of weather stations | Latest weather observations for VIC | Other Formats
Station Details ID: 090176 Name: MORTLAKE RACECOURSE Lat: -38.07 Lon: 142.77 Height: 130.0 m
Data from the previous 72 hours. | See also: Recent months at Mortlake
Date/Time
EST
Temp
°C
App
Temp
°C
Dew
Point
Rel
Hum
%
Delta-T
°C
Wind Press
QNH
hPa
Press
MSL
hPa
Rain
since 9 am
mm
Dir
 
Spd
km/h
Gust
km/h
Spd
kts
Gust
kts
03/10:00pm 9.9 6.7 7.0 82 1.4 W 13 19 7 10 1008.3 1008.3 3.6
03/09:30pm 9.0 5.3 6.3 83 1.3 NW 15 19 8 10 1007.7 1007.7 3.6
03/09:00pm 10.1 5.5 6.3 77 1.8 WNW 20 26 11 14 1007.4 1007.4 3.6
03/08:30pm 10.9 6.3 6.3 73 2.2 WNW 20 30 11 16 1007.0 1007.0 3.6
03/08:00pm 10.2 6.6 6.7 79 1.7 NW 15 20 8 11 1006.5 1006.5 3.6
03/07:30pm 10.0 5.9 6.2 77 1.8 WNW 17 20 9 11 1006.0 1006.0 3.6
03/07:00pm 11.3 6.6 6.0 70 2.5 WNW 20 28 11 15 1005.5 1005.6 3.6
03/06:30pm 11.3 7.2 6.4 72 2.3 WNW 17 22 9 12 1005.1 1005.2 3.6
03/06:00pm 11.0 7.5 7.1 77 1.9 WNW 15 20 8 11 1004.5 1004.6 3.6
03/05:30pm 11.5 7.2 7.2 75 2.1 WNW 19 26 10 14 1004.0 1004.1 3.4
03/05:00pm 12.1 7.7 7.2 72 2.4 WNW 20 32 11 17 1003.2 1003.3 3.4
03/04:30pm 12.9 8.0 8.4 74 2.3 WNW 24 35 13 19 1002.8 1002.8 3.4
03/04:00pm 11.3 5.3 8.5 83 1.4 W 30 46 16 25 1002.2 1002.2 3.4
03/03:30pm 13.7 7.7 8.5 71 2.6 WNW 30 56 16 30 1001.4 1001.4 3.2
03/03:00pm 12.6 6.5 9.6 82 1.5 W 32 54 17 29 1001.2 1001.2 3.2
03/02:35pm 14.0 7.0 8.4 69 2.8 W 35 54 19 29 1000.4 1000.4 3.2
03/02:30pm 14.2 8.0 9.4 73 2.5 W 32 46 17 25 1000.4 1000.4 3.2
03/02:03pm 13.8 7.1 9.5 75 2.2 W 35 56 19 30 999.8 999.8 3.2
03/02:00pm 13.9 6.7 9.1 73 2.5 W 37 56 20 30 999.9 999.9 3.2
03/01:30pm 13.6 8.1 11.8 89 1.0 W 32 54 17 29 999.6 999.6 3.2
03/01:00pm 15.4 8.8 12.5 83 1.6 WNW 39 57 21 31 998.7 998.7 3.0
03/12:30pm 14.2 6.8 13.1 93 0.6 WNW 44 65 24 35 998.8 998.8 2.6
03/12:03pm 14.2 8.4 14.0 99 0.1 NW 37 61 20 33 998.5 998.5 2.0
03/12:00pm 14.2 8.9 14.2 100 0.0 NW 35 50 19 27 998.5 998.5 2.0
03/11:35am 15.1 8.3 13.0 87 1.2 NW 41 59 22 32 998.2 998.2 0.0
03/11:30am 15.7 8.2 12.6 82 1.7 NW 44 59 24 32 997.9 997.9 0.0
03/11:00am 14.9 9.3 13.3 90 0.9 NW 35 56 19 30 998.3 998.3 0.0
03/10:58am 14.8 9.2 13.3 91 0.8 NW 35 56 19 30 998.3 998.3 0.0
03/10:30am 13.9 9.6 13.3 96 0.3 NW 28 41 15 22 998.8 998.8 0.0
03/10:00am 13.8 7.9 12.5 92 0.7 WNW 35 50 19 27 999.0 999.0 0.0
03/09:34am 15.1 7.8 11.5 79 1.9 NW 41 59 22 32 998.7 998.7 0.0
03/09:30am 15.0 7.3 11.6 80 1.8 NW 43 61 23 33 998.7 998.7 0.0
03/09:04am 16.2 8.1 10.9 71 2.8 NW 44 65 24 35 998.4 998.4 0.0
03/09:00am 16.3 8.2 10.8 70 3.0 NW 44 61 24 33 998.3 998.3 0.2
03/08:30am 16.3 7.5 10.8 70 3.0 NNW 48 76 26 41 998.5 998.5 0.2
03/08:02am 16.2 7.7 10.7 70 2.9 NNW 46 67 25 36 998.2 998.2 0.2
03/08:00am 16.2 7.7 10.5 69 3.1 NNW 46 63 25 34 998.2 998.2 0.2
03/07:30am 15.6 5.9 10.6 72 2.7 NNW 52 72 28 39 998.2 998.2 0.2
03/07:12am 15.6 5.9 10.4 71 2.8 NNW 52 72 28 39 998.6 998.6 0.2
03/07:00am 15.6 7.0 10.4 71 2.8 NW 46 65 25 35 998.6 998.6 0.2
03/06:30am 15.8 6.7 9.9 68 3.1 NW 48 67 26 36 998.7 998.7 0.2
03/06:05am 15.8 6.7 9.7 67 3.2 NNW 48 69 26 37 998.9 998.9 0.2
03/06:00am 15.8 7.4 9.7 67 3.2 NW 44 63 24 34 999.0 999.0 0.2
03/05:42am 15.2 6.8 9.6 69 2.9 NW 44 63 24 34 999.2 999.2 0.2
03/05:30am 15.6 6.8 9.7 68 3.1 NW 46 61 25 33 999.1 999.1 0.2
03/05:02am 15.3 6.6 9.9 70 2.8 NNW 46 65 25 35 999.3 999.3 0.2
03/05:00am 15.5 6.5 10.1 70 2.9 NNW 48 65 26 35 999.2 999.2 0.2
03/04:31am 15.5 7.5 10.3 71 2.8 NNW 43 63 23 34 999.6 999.6 0.2
03/04:30am 15.4 7.3 10.2 71 2.7 NNW 43 61 23 33 999.7 999.7 0.2
03/04:00am 15.4 6.3 10.0 70 2.9 NNW 48 67 26 36 1000.1 1000.1 0.2
03/03:32am 15.8 7.1 9.9 68 3.1 NNW 46 69 25 37 1000.1 1000.1 0.2
03/03:30am 15.7 7.3 9.8 68 3.1 NNW 44 61 24 33 1000.2 1000.2 0.2
03/03:00am 15.5 7.3 9.8 69 3.0 NW 43 63 23 34 1001.1 1001.1 0.2
03/02:53am 15.3 9.1 10.1 71 2.7 NNW 33 54 18 29 1001.2 1001.2 0.2
03/02:30am 15.1 8.2 10.3 73 2.5 NNW 37 52 20 28 1001.1 1001.1 0.2
03/02:00am 15.1 7.9 10.7 75 2.4 NNW 39 65 21 35 1001.5 1001.5 0.2
03/01:57am 15.1 8.7 10.7 75 2.3 NNW 35 63 19 34 1001.6 1001.6 0.2
03/01:30am 14.0 8.8 10.4 79 1.9 NNW 28 39 15 21 1002.6 1002.6 0.2
03/01:00am 13.8 8.6 10.2 79 1.9 NNW 28 37 15 20 1002.7 1002.7 0.2
03/12:30am 14.0 7.8 10.2 78 2.0 NNW 33 44 18 24 1002.7 1002.7 0.2
03/12:05am 14.7 7.6 9.7 72 2.6 NNW 37 56 20 30 1003.3 1003.4 0.2
03/12:00am 14.8 7.8 9.8 72 2.6 NNW 37 50 20 27 1003.4 1003.5 0.2
 
Date/Time
EST
Temp
°C
App
Temp
°C
Dew
Point
Rel
Hum
%
Delta-T
°C
Wind Press
QNH
hPa
Press
MSL
hPa
Rain
since 9 am
mm
Dir
 
Spd
km/h
Gust
km/h
Spd
kts
Gust
kts
02/11:46pm 15.1 7.3 9.7 70 2.8 NNW 41 59 22 32 1003.6 1003.7 0.2
02/11:30pm 15.7 7.4 10.0 69 3.0 NW 44 61 24 33 1003.8 1003.9 0.2
02/11:15pm 15.6 8.9 9.7 68 3.1 NNW 35 54 19 29 1003.9 1004.0 0.2
02/11:00pm 15.6 8.5 9.7 68 3.1 NNW 37 50 20 27 1003.9 1004.0 0.2
02/10:30pm 15.1 8.0 9.5 69 2.9 NNW 37 56 20 30 1004.5 1004.6 0.2
02/10:21pm 15.2 8.8 9.3 68 3.1 NNW 33 54 18 29 1004.8 1004.9 0.2
02/10:00pm 15.3 8.5 9.4 68 3.1 NNW 35 50 19 27 1005.1 1005.2 0.2
02/09:30pm 14.7 9.2 9.1 69 2.9 NNW 28 39 15 21 1005.3 1005.4 0.2
02/09:00pm 14.4 8.2 9.2 71 2.7 NNW 32 39 17 21 1005.3 1005.4 0.2
02/08:30pm 15.0 8.5 8.9 67 3.1 NNW 33 46 18 25 1005.5 1005.6 0.2
02/08:00pm 15.8 9.7 8.3 61 3.8 NNW 30 43 16 23 1005.4 1005.5 0.2
02/07:30pm 14.6 10.6 8.3 66 3.2 NNW 19 26 10 14 1005.7 1005.8 0.2
02/07:00pm 14.4 9.7 7.9 65 3.3 NNW 22 28 12 15 1005.9 1005.9 0.2
02/06:30pm 14.9 9.9 7.9 63 3.5 NNW 24 32 13 17 1005.9 1005.9 0.2
02/06:00pm 15.2 10.1 7.7 61 3.8 NNW 24 37 13 20 1005.6 1005.7 0.2
02/05:30pm 15.1 10.4 7.9 62 3.6 NNW 22 37 12 20 1006.0 1006.0 0.2
02/05:00pm 16.3 10.5 7.8 57 4.3 NNW 28 44 15 24 1006.0 1006.0 0.2
02/04:30pm 16.9 9.3 7.5 54 4.7 NNW 37 50 20 27 1006.0 1006.0 0.2
02/04:00pm 16.8 9.6 7.7 55 4.6 NNW 35 48 19 26 1006.1 1006.1 0.2
02/03:30pm 17.3 9.8 7.9 54 4.8 NNW 37 52 20 28 1006.2 1006.2 0.2
02/03:00pm 17.4 9.4 7.5 52 5.0 NNW 39 56 21 30 1006.5 1006.5 0.2
02/02:33pm 16.8 8.9 7.7 55 4.6 NW 39 59 21 32 1007.0 1007.0 0.2
02/02:30pm 16.8 9.2 7.7 55 4.6 NW 37 50 20 27 1007.0 1007.0 0.2
02/02:13pm 16.9 9.4 7.8 55 4.6 NW 37 56 20 30 1007.4 1007.4 0.2
02/02:00pm 16.8 9.5 7.4 54 4.7 NNW 35 50 19 27 1007.4 1007.4 0.2
02/01:41pm 17.2 8.8 7.5 53 4.9 NW 41 61 22 33 1007.6 1007.6 0.2
02/01:30pm 16.3 7.9 7.3 55 4.5 NNW 41 54 22 29 1007.8 1007.8 0.2
02/01:00pm 17.5 9.1 7.5 52 5.1 NW 41 52 22 28 1008.0 1008.0 0.2
02/12:30pm 16.5 8.5 7.4 55 4.6 NNW 39 52 21 28 1008.4 1008.4 0.2
02/12:00pm 16.7 8.5 8.1 57 4.4 NW 41 52 22 28 1009.2 1009.2 0.2
02/11:30am 16.4 8.4 7.6 56 4.4 NW 39 57 21 31 1009.4 1009.4 0.2
02/11:27am 16.2 8.2 7.4 56 4.4 NW 39 57 21 31 1009.4 1009.4 0.2
02/11:00am 16.0 8.7 7.2 56 4.4 NNW 35 46 19 25 1009.8 1009.9 0.0
02/10:30am 15.2 8.3 7.3 59 3.9 NW 33 48 18 26 1010.1 1010.2 0.0
02/10:00am 14.6 9.6 7.9 64 3.4 NNW 24 33 13 18 1010.5 1010.6 0.0
02/09:30am 13.3 8.3 8.2 71 2.5 NNW 24 33 13 18 1010.9 1011.0 0.0
02/09:00am 12.4 7.3 7.5 72 2.4 NNW 24 33 13 18 1011.3 1011.4 3.0
02/08:30am 10.3 6.9 7.5 83 1.3 N 15 19 8 10 1011.4 1011.5 3.0
02/08:00am 9.7 6.2 7.3 85 1.1 N 15 19 8 10 1011.5 1011.6 3.0
02/07:30am 9.2 5.7 7.0 86 1.0 NNW 15 19 8 10 1011.6 1011.7 3.0
02/07:00am 9.7 5.5 7.3 85 1.1 NNW 19 26 10 14 1011.7 1011.8 3.0
02/06:30am 9.1 6.0 7.1 87 0.9 NNW 13 19 7 10 1011.8 1011.9 3.0
02/06:00am 8.7 4.7 6.7 87 0.9 NNW 17 24 9 13 1011.9 1012.0 3.0
02/05:30am 7.9 4.2 6.2 89 0.8 NNW 15 19 8 10 1012.3 1012.4 3.0
02/05:00am 7.4 3.6 6.0 91 0.6 N 15 19 8 10 1012.3 1012.4 3.0
02/04:30am 5.2 1.9 4.5 95 0.3 N 11 13 6 7 1012.3 1012.4 3.0
02/04:00am 5.9 2.7 5.0 94 0.4 NNW 11 15 6 8 1012.4 1012.5 3.0
02/03:30am 7.1 3.6 5.4 89 0.8 NNW 13 15 7 8 1012.7 1012.8 3.0
02/03:00am 7.3 3.4 5.4 88 0.9 NNW 15 17 8 9 1013.1 1013.2 3.0
02/02:30am 8.5 5.2 6.5 87 0.9 NNW 13 17 7 9 1013.4 1013.5 3.0
02/02:00am 8.0 4.7 6.3 89 0.8 NNW 13 17 7 9 1013.6 1013.7 3.0
02/01:30am 7.6 4.2 6.1 90 0.7 NNW 13 17 7 9 1013.9 1013.9 3.0
02/01:00am 7.7 4.8 6.5 92 0.6 NNW 11 17 6 9 1014.1 1014.1 3.0
02/12:30am 7.5 3.8 6.3 92 0.5 NNW 15 17 8 9 1014.4 1014.4 3.0
02/12:00am 6.3 3.6 5.4 94 0.4 NNW 9 11 5 6 1014.6 1014.6 3.0
 
Date/Time
EST
Temp
°C
App
Temp
°C
Dew
Point
Rel
Hum
%
Delta-T
°C
Wind Press
QNH
hPa
Press
MSL
hPa
Rain
since 9 am
mm
Dir
 
Spd
km/h
Gust
km/h
Spd
kts
Gust
kts
01/11:30pm 6.6 3.5 5.4 92 0.5 NW 11 15 6 8 1015.0 1015.0 3.0
01/11:00pm 7.2 3.8 5.8 91 0.6 NW 13 17 7 9 1015.1 1015.1 3.0
01/10:30pm 7.8 4.1 6.1 89 0.8 NNW 15 19 8 10 1015.3 1015.3 3.0
01/10:00pm 8.4 5.7 7.3 93 0.5 NNW 11 15 6 8 1015.5 1015.5 3.0
01/09:30pm 6.7 3.7 5.8 94 0.4 NNW 11 13 6 7 1015.4 1015.4 3.0
01/09:00pm 7.4 4.4 6.0 91 0.6 NW 11 13 6 7 1015.3 1015.3 3.0
01/08:30pm 7.4 4.4 6.0 91 0.6 NW 11 13 6 7 1015.0 1015.0 3.0
01/08:00pm 7.7 4.8 6.6 93 0.5 NW 11 13 6 7 1014.9 1014.9 3.0
01/07:30pm 7.8 5.8 6.1 89 0.8 WNW 6 7 3 4 1014.7 1014.7 3.0
01/07:00pm 8.3 5.8 6.6 89 0.8 WNW 9 11 5 6 1014.6 1014.6 3.0
01/06:30pm 10.0 8.0 6.9 81 1.5 W 7 9 4 5 1014.4 1014.4 3.0
01/06:00pm 10.1 7.3 7.0 81 1.5 W 11 17 6 9 1014.1 1014.1 3.0
01/05:30pm 10.5 7.3 7.0 79 1.7 WNW 13 19 7 10 1014.0 1014.0 3.0
01/05:00pm 10.9 6.6 6.8 76 2.0 WNW 19 26 10 14 1013.6 1013.7 3.0
01/04:30pm 10.9 7.3 6.6 75 2.0 W 15 22 8 12 1013.2 1013.3 3.0
01/04:00pm 11.5 6.1 6.4 71 2.4 WSW 24 41 13 22 1012.9 1013.0 3.0
01/03:30pm 14.2 9.0 7.3 63 3.4 W 24 37 13 20 1012.2 1012.3 3.0
01/03:00pm 12.4 8.1 7.7 73 2.3 W 20 30 11 16 1011.9 1012.0 3.0
01/02:30pm 13.0 7.0 7.0 67 2.9 W 28 37 15 20 1011.3 1011.4 3.0
01/02:00pm 11.9 5.2 7.2 73 2.3 W 32 46 17 25 1011.0 1011.1 3.0
01/01:30pm 13.2 6.5 7.4 68 2.8 W 32 44 17 24 1010.8 1010.9 3.0
01/01:00pm 13.0 6.4 8.7 75 2.2 WNW 33 48 18 26 1010.3 1010.4 3.0
01/12:31pm 12.3 6.0 9.0 80 1.7 WNW 32 50 17 27 1010.2 1010.3 3.0
01/12:30pm 12.4 6.5 9.2 81 1.6 WNW 30 43 16 23 1010.4 1010.5 3.0
01/12:00pm 11.1 6.1 9.4 89 0.9 WNW 26 35 14 19 1010.4 1010.5 2.8
01/11:30am 11.3 6.2 9.2 87 1.1 WNW 26 39 14 21 1010.1 1010.2 2.2
01/11:00am 11.0 6.6 8.8 86 1.1 W 22 33 12 18 1009.7 1009.8 2.2
01/10:30am 10.7 7.4 9.6 93 0.6 WNW 17 26 9 14 1009.1 1009.1 2.2
01/10:00am 9.8 5.2 9.5 98 0.2 WNW 24 33 13 18 1009.0 1009.0 2.2
01/09:30am 9.8 5.1 9.2 96 0.3 W 24 37 13 20 1008.8 1008.7 1.4
01/09:07am 9.9 4.2 9.8 99 0.1 WNW 30 48 16 26 1007.9 1007.8 0.4
01/09:00am 10.1 3.1 9.8 98 0.2 WNW 37 50 20 27 1007.7 1007.6 13.8
01/08:30am 10.9 5.4 10.6 98 0.2 WNW 30 35 16 19 1006.8 1006.7 12.6
01/08:00am 10.8 6.4 10.5 98 0.2 WNW 24 35 13 19 1006.0 1005.9 12.6
01/07:30am 10.6 6.1 10.0 96 0.3 WNW 24 32 13 17 1005.1 1005.0 12.6
01/07:00am 10.3 6.0 9.5 95 0.4 NW 22 30 12 16 1004.4 1004.3 12.6
01/06:30am 9.9 6.2 9.3 96 0.3 WNW 19 24 10 13 1003.9 1003.8 12.6
01/06:08am 10.8 5.7 10.6 99 0.1 WNW 28 48 15 26 1004.0 1003.9 11.2
01/06:00am 11.0 5.5 10.5 97 0.3 WNW 30 41 16 22 1004.0 1003.9 10.4
01/05:30am 12.3 7.9 9.0 80 1.7 WNW 22 32 12 17 1002.9 1002.8 9.6
01/05:00am 12.4 5.8 8.5 77 2.0 WNW 33 46 18 25 1002.6 1002.5 9.6
01/04:30am 12.8 7.6 8.9 77 2.0 WNW 26 39 14 21 1002.6 1002.5 9.6
01/04:00am 13.7 7.3 9.4 75 2.2 NW 33 46 18 25 1002.0 1001.9 9.6
01/03:48am 14.1 7.9 10.1 77 2.1 NW 33 52 18 28 1001.8 1001.7 9.6
01/03:30am 14.6 8.5 10.6 77 2.1 NW 33 50 18 27 1001.2 1001.1 9.6
01/03:28am 14.5 8.6 10.5 77 2.1 NW 32 43 17 23 1001.2 1001.1 9.6
01/03:00am 14.5 11.2 11.7 83 1.5 NNW 20 24 11 13 1001.0 1000.9 9.6
01/02:30am 15.1 11.3 12.4 84 1.5 NNW 24 39 13 21 1002.0 1001.9 9.6
01/02:00am 15.4 11.5 13.2 87 1.2 NW 26 37 14 20 1002.5 1002.4 9.6
01/01:30am 15.4 12.1 14.9 97 0.3 NNW 26 35 14 19 1002.6 1002.5 9.2
01/01:00am 14.2 12.7 14.2 100 0.0 NNW 15 19 8 10 1002.6 1002.5 8.4
01/12:44am 13.7 9.6 13.7 100 0.0 NW 28 39 15 21 1002.6 1002.5 8.0
01/12:30am 13.7 6.8 11.6 87 1.1 NW 39 61 21 33 1003.7 1003.6 5.2
01/12:27am 14.8 8.0 11.8 82 1.6 NNW 39 61 21 33 1003.8 1003.7 1.6
01/12:25am 16.5 10.1 13.2 81 1.9 N 39 61 21 33 1003.2 1003.1 0.4
01/12:07am 19.2 12.8 13.2 68 3.4 N 39 59 21 32 1001.9 1001.8 0.2
01/12:00am 18.9 13.5 12.9 68 3.4 N 33 46 18 25 1001.9 1001.8 0.2
 
Date/Time
EST
Temp
°C
App
Temp
°C
Dew
Point
Rel
Hum
%
Delta-T
°C
Wind Press
QNH
hPa
Press
MSL
hPa
Rain
since 9 am
mm
Dir
 
Spd
km/h
Gust
km/h
Spd
kts
Gust
kts
30/11:55pm 18.8 14.4 12.8 68 3.4 N 28 46 15 25 1001.7 1001.6 0.2
30/11:30pm 18.3 14.5 12.5 69 3.2 N 24 35 13 19 1002.2 1002.1 0.2
30/11:00pm 18.0 14.1 12.2 69 3.2 N 24 32 13 17 1003.3 1003.2 0.2
30/10:30pm 17.6 14.1 12.1 70 3.0 NNE 22 28 12 15 1004.1 1004.0 0.2

Other Formats:

Comma delimited format used in spreadsheet applications
http://www.bom.gov.au/fwo/IDV60801/IDV60801.94840.axf

JavaScript Object Notation format (JSON) in row-major order
http://www.bom.gov.au/fwo/IDV60801/IDV60801.94840.json